createdAt,value
2022-12-03T00:01:20.322Z,16.20
2022-12-03T00:03:56.445Z,14.47
2022-12-03T00:06:34.512Z,14.67
2022-12-03T00:09:16.300Z,15.20
2022-12-03T00:11:51.049Z,14.57
2022-12-03T00:14:25.265Z,14.90
2022-12-03T00:16:54.318Z,15.80
2022-12-03T00:19:28.684Z,16.97
2022-12-03T00:22:12.812Z,15.50
2022-12-03T00:24:48.160Z,15.60
2022-12-03T00:27:24.920Z,15.67
2022-12-03T00:29:55.767Z,16.63
2022-12-03T00:32:27.565Z,15.10
2022-12-03T00:34:59.512Z,14.73
2022-12-03T00:37:38.400Z,15.20
2022-12-03T00:40:12.252Z,14.63
2022-12-03T00:42:43.572Z,14.90
2022-12-03T00:45:17.858Z,15.03
2022-12-03T00:47:51.317Z,16.07
2022-12-03T00:50:22.450Z,14.57
2022-12-03T00:53:09.493Z,14.70
2022-12-03T00:55:54.241Z,15.00
2022-12-03T00:58:30.642Z,15.53
2022-12-03T01:01:03.686Z,15.60
2022-12-03T01:03:35.390Z,15.23
2022-12-03T01:06:13.774Z,15.70
2022-12-03T01:08:45.069Z,15.30
2022-12-03T01:11:42.253Z,14.77
2022-12-03T01:14:14.277Z,16.00
2022-12-03T01:16:47.271Z,15.40
2022-12-03T01:19:21.604Z,15.90
2022-12-03T01:21:52.934Z,15.00
2022-12-03T01:24:36.231Z,15.47
2022-12-03T01:27:13.695Z,15.80
2022-12-03T01:29:45.752Z,17.37
2022-12-03T01:32:20.041Z,14.77
2022-12-03T01:34:52.045Z,15.20
2022-12-03T01:37:27.854Z,14.70
2022-12-03T01:40:05.038Z,14.93
2022-12-03T01:42:49.463Z,15.10
2022-12-03T01:45:27.284Z,16.40
2022-12-03T01:52:37.359Z,15.53
2022-12-03T01:55:17.670Z,15.43
2022-12-03T01:57:55.276Z,15.17
2022-12-03T02:00:34.199Z,15.80
2022-12-03T02:03:20.877Z,16.03
2022-12-03T02:05:57.618Z,15.13
2022-12-03T02:08:42.934Z,14.90
2022-12-03T02:11:29.214Z,16.23
2022-12-03T02:14:12.833Z,15.90
2022-12-03T02:16:49.793Z,15.63
2022-12-03T02:19:30.692Z,14.90
2022-12-03T02:22:16.084Z,15.33
2022-12-03T02:25:00.999Z,14.70
2022-12-03T02:27:37.295Z,16.00
2022-12-03T02:32:59.334Z,15.00
2022-12-03T02:35:40.767Z,15.37
2022-12-03T02:38:26.155Z,14.80
2022-12-03T02:41:09.960Z,17.20
2022-12-03T02:43:53.796Z,14.80
2022-12-03T02:46:29.116Z,18.80
2022-12-03T02:49:03.526Z,14.60
2022-12-03T02:51:44.257Z,14.30
2022-12-03T02:54:22.840Z,14.90
2022-12-03T02:57:02.412Z,17.60
2022-12-03T02:59:52.045Z,14.83
2022-12-03T03:02:32.119Z,14.97
2022-12-03T03:05:08.253Z,14.40
2022-12-03T03:07:40.373Z,14.33
2022-12-03T03:10:18.096Z,14.40
2022-12-03T03:12:57.200Z,14.80
2022-12-03T03:15:37.863Z,14.77
2022-12-03T03:18:20.067Z,13.97
2022-12-03T03:20:49.133Z,15.20
2022-12-03T03:23:22.399Z,14.70
2022-12-03T03:26:35.016Z,14.20
2022-12-03T03:29:24.900Z,19.70
2022-12-03T03:31:56.810Z,14.40
2022-12-03T03:34:28.391Z,14.10
2022-12-03T03:36:57.695Z,14.13
2022-12-03T03:39:34.871Z,14.50
2022-12-03T03:42:05.801Z,15.00
2022-12-03T03:44:43.285Z,15.70
2022-12-03T03:47:18.960Z,14.40
2022-12-03T03:49:56.445Z,14.20
2022-12-03T03:52:27.358Z,14.10
2022-12-03T03:55:18.024Z,14.67
2022-12-03T03:57:53.370Z,13.90
2022-12-03T04:00:28.208Z,14.20
2022-12-03T04:03:16.084Z,14.67
2022-12-03T04:05:47.028Z,14.20
2022-12-03T04:08:33.546Z,15.93
2022-12-03T04:11:25.816Z,14.40
2022-12-03T04:13:55.706Z,15.07
2022-12-03T04:16:53.242Z,16.80
2022-12-03T04:19:32.209Z,15.80
2022-12-03T04:22:21.324Z,15.30
2022-12-03T04:25:20.188Z,14.90
2022-12-03T04:31:34.463Z,16.57
2022-12-03T04:34:31.075Z,16.00
2022-12-03T04:42:33.436Z,15.87
2022-12-03T04:45:26.489Z,15.90
2022-12-03T05:09:49.967Z,14.93
2022-12-03T05:12:50.103Z,15.10
2022-12-03T05:16:31.221Z,15.50
2022-12-03T05:22:53.473Z,19.03
2022-12-03T05:25:30.310Z,16.13
2022-12-03T05:28:23.468Z,16.30
2022-12-03T05:31:09.555Z,16.87
2022-12-03T05:33:53.221Z,15.30
2022-12-03T05:36:39.181Z,18.30
2022-12-03T05:39:27.379Z,15.70
2022-12-03T05:45:57.270Z,16.17
2022-12-03T05:55:15.861Z,16.90
2022-12-03T05:58:44.142Z,16.17
2022-12-03T06:01:17.048Z,17.43
2022-12-03T06:06:45.230Z,15.13
2022-12-03T06:09:29.203Z,16.50
2022-12-03T06:12:07.257Z,15.70
2022-12-03T06:14:53.284Z,15.87
2022-12-03T06:17:55.120Z,15.43
2022-12-03T06:24:26.986Z,14.87
2022-12-03T06:27:44.330Z,15.37
2022-12-03T06:30:39.961Z,15.60
2022-12-03T06:33:40.140Z,15.30
2022-12-03T06:39:40.897Z,16.00
2022-12-03T06:42:41.846Z,21.37
2022-12-03T06:46:04.475Z,16.33
2022-12-03T06:49:31.819Z,15.00
2022-12-03T06:52:22.760Z,15.17
2022-12-03T06:55:28.171Z,15.50
2022-12-03T06:58:05.589Z,16.00
2022-12-03T07:04:30.047Z,14.20
2022-12-03T07:07:31.328Z,14.43
2022-12-03T07:10:29.894Z,15.77
2022-12-03T07:16:14.375Z,16.37
2022-12-03T07:19:04.075Z,14.50
2022-12-03T07:21:36.157Z,16.70
2022-12-03T07:24:12.521Z,14.57
2022-12-03T07:26:41.250Z,15.70
2022-12-03T07:29:13.373Z,13.80
2022-12-03T07:31:42.535Z,14.00
2022-12-03T07:34:14.189Z,14.90
2022-12-03T07:36:55.910Z,14.20
2022-12-03T07:39:56.897Z,14.30
2022-12-03T07:42:27.533Z,14.70
2022-12-03T07:45:16.895Z,14.60
2022-12-03T07:48:34.237Z,15.27
2022-12-03T07:51:18.186Z,14.30
2022-12-03T07:53:49.587Z,15.10
2022-12-03T07:56:24.490Z,14.73
2022-12-03T07:58:53.405Z,13.70
2022-12-03T08:01:29.577Z,15.40
2022-12-03T08:03:59.456Z,13.53
2022-12-03T08:06:28.350Z,13.87
2022-12-03T08:08:57.136Z,14.43
2022-12-03T08:11:32.200Z,15.40
2022-12-03T08:14:02.836Z,13.60
2022-12-03T08:16:39.126Z,13.70
2022-12-03T08:19:17.660Z,14.30
2022-12-03T08:22:06.356Z,14.20
2022-12-03T08:24:54.131Z,13.70
2022-12-03T08:27:28.151Z,14.50
2022-12-03T08:30:24.204Z,13.30
2022-12-03T08:33:04.160Z,13.40
2022-12-03T08:35:35.009Z,13.80
2022-12-03T08:49:14.052Z,14.10
2022-12-03T08:51:53.658Z,13.20
2022-12-03T08:54:29.977Z,13.30
2022-12-03T08:57:03.786Z,13.80
2022-12-03T08:59:45.613Z,13.53
2022-12-03T09:02:40.064Z,13.60
2022-12-03T09:05:20.935Z,13.30
2022-12-03T09:07:53.837Z,14.30
2022-12-03T09:10:23.933Z,13.70
2022-12-03T09:12:52.830Z,13.70
2022-12-03T09:15:28.391Z,14.87
2022-12-03T09:18:05.002Z,13.50
2022-12-03T09:20:40.154Z,13.70
2022-12-03T09:23:23.414Z,13.00
2022-12-03T09:26:28.818Z,13.20
2022-12-03T09:31:59.491Z,12.30
2022-12-03T09:35:09.565Z,13.10
2022-12-03T09:38:09.100Z,14.00
2022-12-03T09:41:24.279Z,12.90
2022-12-03T09:44:06.489Z,11.90
2022-12-03T09:46:53.202Z,11.57
2022-12-03T09:49:23.933Z,31.53
2022-12-03T09:52:41.562Z,12.90
2022-12-03T09:55:50.087Z,13.50
2022-12-03T09:58:48.981Z,12.70
2022-12-03T10:01:57.024Z,13.70
2022-12-03T10:09:37.703Z,12.70
2022-12-03T10:14:14.987Z,13.30
2022-12-03T10:17:15.011Z,14.40
2022-12-03T10:22:52.009Z,16.00
2022-12-03T10:26:19.093Z,15.40
2022-12-03T10:28:49.280Z,12.90
2022-12-03T10:31:49.588Z,13.63
2022-12-03T10:38:05.368Z,14.27
2022-12-03T10:58:33.103Z,12.80
2022-12-03T11:01:34.499Z,12.67
2022-12-03T11:04:27.338Z,13.10
2022-12-03T11:07:33.154Z,13.00
2022-12-03T11:10:59.601Z,12.80
2022-12-03T11:13:35.140Z,17.40
2022-12-03T11:50:57.321Z,14.90
2022-12-03T12:01:00.823Z,12.83
2022-12-03T12:04:23.500Z,17.60
2022-12-03T12:11:01.839Z,13.47
2022-12-03T12:18:10.637Z,25.90
2022-12-03T12:20:51.618Z,27.93
2022-12-03T12:23:30.828Z,29.17
2022-12-03T12:26:20.039Z,29.67
2022-12-03T12:28:55.063Z,27.30
2022-12-03T12:31:34.433Z,29.03
2022-12-03T12:34:44.974Z,25.67
2022-12-03T12:37:53.555Z,30.53
2022-12-03T13:18:04.856Z,29.80
2022-12-03T13:24:09.227Z,26.73
2022-12-03T13:26:47.307Z,29.07
2022-12-03T13:33:26.116Z,26.70
2022-12-03T13:36:19.601Z,25.63
2022-12-03T13:38:54.996Z,28.00
2022-12-03T13:41:46.610Z,26.27
2022-12-03T13:44:23.322Z,29.03
2022-12-03T13:47:25.697Z,26.40
2022-12-03T13:50:03.002Z,28.60
2022-12-03T13:52:45.397Z,26.53
2022-12-03T13:55:32.007Z,28.63
2022-12-03T13:58:01.986Z,25.77
2022-12-03T14:00:38.427Z,28.60
2022-12-03T14:03:12.840Z,27.50
2022-12-03T14:05:53.376Z,29.20
2022-12-03T14:08:37.126Z,25.93
2022-12-03T14:11:42.126Z,27.73
2022-12-03T14:14:16.500Z,30.40
2022-12-03T14:17:13.435Z,28.60
2022-12-03T14:19:45.952Z,26.47
2022-12-03T14:22:19.419Z,27.77
2022-12-03T14:24:57.473Z,28.87
2022-12-03T14:27:28.991Z,24.80
2022-12-03T14:30:03.058Z,27.30
2022-12-03T14:32:32.436Z,25.77
2022-12-03T14:35:14.731Z,27.23
2022-12-03T14:37:51.555Z,26.97
2022-12-03T14:47:12.498Z,27.37
2022-12-03T14:49:48.496Z,27.37
2022-12-03T14:52:26.285Z,14.30
2022-12-03T14:55:01.145Z,15.40
2022-12-03T14:58:38.506Z,13.00
2022-12-03T15:01:23.178Z,14.23
2022-12-03T15:04:01.459Z,14.07
2022-12-03T15:06:42.368Z,14.23
2022-12-03T15:09:37.255Z,18.63
2022-12-03T15:16:35.964Z,14.20
2022-12-03T15:19:24.640Z,15.50
2022-12-03T15:22:12.478Z,13.93
2022-12-03T15:25:29.117Z,14.00
2022-12-03T15:28:28.277Z,13.60
2022-12-03T15:52:49.652Z,16.57
2022-12-03T16:18:57.798Z,14.60
